createdAt,value
2017-10-13T00:01:24.990Z,10.6
2017-10-13T00:11:39.256Z,10.5
2017-10-13T00:21:53.465Z,10.5
2017-10-13T00:32:05.702Z,10.4
2017-10-13T00:42:19.620Z,10.3
2017-10-13T00:52:34.157Z,10.3
2017-10-13T01:02:46.097Z,10.2
2017-10-13T01:12:59.821Z,10.2
2017-10-13T01:23:13.832Z,10.1
2017-10-13T01:33:25.390Z,10.0
2017-10-13T01:43:37.465Z,10.0
2017-10-13T01:53:52.536Z,9.9
2017-10-13T02:04:06.161Z,9.8
2017-10-13T02:14:20.205Z,9.8
2017-10-13T02:25:05.934Z,9.6
2017-10-13T02:35:19.134Z,9.6
2017-10-13T02:45:32.646Z,9.6
2017-10-13T02:55:46.865Z,9.6
2017-10-13T03:06:00.961Z,9.5
2017-10-13T03:16:15.228Z,9.5
2017-10-13T03:26:29.162Z,9.5
2017-10-13T03:36:52.811Z,9.5
2017-10-13T03:47:06.775Z,9.5
2017-10-13T03:57:20.756Z,9.6
2017-10-13T04:07:33.944Z,9.6
2017-10-13T04:17:47.182Z,9.6
2017-10-13T04:28:00.728Z,9.6
2017-10-13T04:38:14.845Z,9.6
2017-10-13T04:48:59.290Z,9.7
2017-10-13T04:59:11.118Z,9.6
2017-10-13T05:09:24.918Z,9.6
2017-10-13T05:19:38.234Z,9.6
2017-10-13T05:29:51.294Z,9.5
2017-10-13T05:40:13.319Z,9.4
2017-10-13T05:50:26.808Z,9.4
2017-10-13T06:00:40.419Z,9.3
2017-10-13T06:10:54.511Z,9.3
2017-10-13T06:21:09.187Z,9.2
2017-10-13T06:31:22.794Z,9.2
2017-10-13T06:41:37.374Z,9.2
2017-10-13T06:51:51.764Z,9.1
2017-10-13T07:02:05.714Z,9.2
2017-10-13T07:12:20.048Z,9.2
2017-10-13T07:22:34.075Z,9.4
2017-10-13T07:32:48.312Z,9.6
2017-10-13T07:43:02.572Z,9.8
2017-10-13T07:53:16.572Z,10.1
2017-10-13T08:03:31.093Z,10.5
2017-10-13T08:13:45.569Z,11.5
2017-10-13T08:24:30.827Z,15.7
2017-10-13T08:34:45.335Z,15.7
2017-10-13T08:44:57.535Z,17.8
2017-10-13T08:55:11.808Z,19.2
2017-10-13T09:05:25.987Z,19.0
2017-10-13T09:15:40.460Z,18.0
2017-10-13T09:25:52.813Z,18.5
2017-10-13T09:36:07.023Z,18.4
2017-10-13T09:46:21.171Z,18.2
2017-10-13T09:56:35.032Z,18.3
2017-10-13T10:06:49.422Z,18.5
2017-10-13T10:17:00.519Z,18.7
2017-10-13T10:27:14.908Z,19.3
2017-10-13T10:37:28.982Z,20.5
2017-10-13T10:47:43.231Z,21.8
2017-10-13T10:57:57.696Z,22.9
2017-10-13T11:08:09.686Z,23.9
2017-10-13T11:18:55.238Z,25.9
2017-10-13T11:29:08.786Z,25.9
2017-10-13T11:39:54.266Z,27.4
2017-10-13T11:50:39.208Z,27.8
2017-10-13T12:00:54.010Z,27.8
2017-10-13T12:11:39.343Z,28.5
2017-10-13T12:22:25.802Z,28.7
2017-10-13T12:32:49.002Z,28.7
2017-10-13T12:43:02.636Z,28.6
2017-10-13T12:53:16.909Z,28.1
2017-10-13T13:03:30.813Z,27.8
2017-10-13T13:14:49.773Z,25.0
2017-10-13T13:25:03.915Z,25.0
2017-10-13T13:35:49.673Z,25.3
2017-10-13T13:46:34.648Z,24.6
2017-10-13T13:56:45.918Z,24.6
2017-10-13T14:07:00.475Z,24.8
2017-10-13T14:17:14.612Z,24.7
2017-10-13T14:27:59.841Z,23.5
2017-10-13T14:38:14.074Z,23.5
2017-10-13T14:48:59.067Z,23.0
2017-10-13T14:59:44.840Z,22.7
2017-10-13T15:10:30.792Z,22.3
2017-10-13T15:21:16.351Z,22.0
2017-10-13T15:32:03.015Z,21.7
2017-10-13T15:42:44.015Z,21.7
2017-10-13T15:53:01.101Z,21.3
2017-10-13T16:03:46.236Z,20.6
2017-10-13T16:14:00.416Z,20.6
2017-10-13T16:25:35.308Z,20.3
2017-10-13T16:35:47.337Z,20.0
2017-10-13T16:47:21.088Z,19.8
2017-10-13T16:58:07.324Z,19.3
2017-10-13T17:08:21.222Z,19.3
2017-10-13T17:19:26.534Z,18.8
2017-10-13T17:29:57.197Z,18.8
2017-10-13T17:41:00.102Z,18.5
2017-10-13T17:52:52.617Z,18.3
2017-10-13T18:04:21.369Z,18.0
2017-10-13T18:16:02.683Z,17.7
2017-10-13T18:27:09.831Z,17.4
2017-10-13T18:37:38.564Z,17.4
2017-10-13T18:48:46.745Z,17.0
2017-10-13T18:59:00.684Z,17.0
2017-10-13T19:09:15.072Z,16.8
2017-10-13T19:20:00.347Z,16.5
2017-10-13T19:30:45.137Z,16.4
2017-10-13T19:40:56.652Z,16.4
2017-10-13T19:51:10.753Z,16.3
2017-10-13T20:01:25.398Z,16.3
2017-10-13T20:12:10.855Z,16.2
2017-10-13T20:22:56.349Z,16.2
2017-10-13T20:33:41.220Z,16.2
2017-10-13T20:43:55.663Z,16.3
2017-10-13T20:54:07.108Z,16.3
2017-10-13T21:04:52.315Z,16.3
2017-10-13T21:15:05.997Z,16.3
2017-10-13T21:25:51.556Z,16.4
2017-10-13T21:36:06.109Z,16.4
2017-10-13T21:46:20.318Z,16.4
2017-10-13T21:56:36.625Z,16.5
2017-10-13T22:06:50.512Z,16.5
2017-10-13T22:17:04.584Z,16.5
2017-10-13T22:27:18.903Z,16.5
2017-10-13T22:37:33.096Z,16.5
2017-10-13T22:47:47.035Z,16.5
2017-10-13T22:58:02.397Z,16.5
2017-10-13T23:08:17.024Z,16.5
2017-10-13T23:18:30.607Z,16.4
2017-10-13T23:28:45.193Z,16.4
2017-10-13T23:38:59.410Z,16.4
2017-10-13T23:49:44.973Z,16.3
